sensor_id;sensor_type;location;lat;lon;timestamp;P1;durP1;ratioP1;P2;durP2;ratioP2
25854;SDS011;13680;49.936;11.344;2023-09-12T00:00:05;12.45;;;7.07;;
25854;SDS011;13680;49.936;11.344;2023-09-12T00:02:31;11.50;;;7.30;;
25854;SDS011;13680;49.936;11.344;2023-09-12T00:04:56;12.85;;;6.93;;
25854;SDS011;13680;49.936;11.344;2023-09-12T00:07:22;12.20;;;6.70;;
25854;SDS011;13680;49.936;11.344;2023-09-12T00:09:47;13.35;;;6.82;;
25854;SDS011;13680;49.936;11.344;2023-09-12T00:12:15;10.63;;;6.65;;
25854;SDS011;13680;49.936;11.344;2023-09-12T00:14:41;11.38;;;7.10;;
25854;SDS011;13680;49.936;11.344;2023-09-12T00:17:07;11.27;;;6.80;;
25854;SDS011;13680;49.936;11.344;2023-09-12T00:19:32;14.18;;;6.70;;
25854;SDS011;13680;49.936;11.344;2023-09-12T00:21:58;14.90;;;7.30;;
25854;SDS011;13680;49.936;11.344;2023-09-12T00:24:23;13.13;;;7.13;;
25854;SDS011;13680;49.936;11.344;2023-09-12T00:26:48;12.65;;;6.75;;
25854;SDS011;13680;49.936;11.344;2023-09-12T00:29:14;13.60;;;5.95;;
25854;SDS011;13680;49.936;11.344;2023-09-12T00:31:39;13.70;;;7.10;;
25854;SDS011;13680;49.936;11.344;2023-09-12T00:34:05;12.65;;;7.13;;
25854;SDS011;13680;49.936;11.344;2023-09-12T00:36:30;11.38;;;6.50;;
25854;SDS011;13680;49.936;11.344;2023-09-12T00:38:56;14.75;;;6.72;;
25854;SDS011;13680;49.936;11.344;2023-09-12T00:41:21;11.43;;;6.50;;
25854;SDS011;13680;49.936;11.344;2023-09-12T00:43:47;12.40;;;6.45;;
25854;SDS011;13680;49.936;11.344;2023-09-12T00:46:13;10.75;;;6.10;;
25854;SDS011;13680;49.936;11.344;2023-09-12T00:48:43;14.10;;;7.15;;
25854;SDS011;13680;49.936;11.344;2023-09-12T00:51:09;14.20;;;6.80;;
25854;SDS011;13680;49.936;11.344;2023-09-12T00:53:35;15.95;;;6.95;;
25854;SDS011;13680;49.936;11.344;2023-09-12T00:56:00;12.85;;;7.30;;
25854;SDS011;13680;49.936;11.344;2023-09-12T00:58:26;13.88;;;7.03;;
25854;SDS011;13680;49.936;11.344;2023-09-12T01:00:53;11.00;;;6.57;;
25854;SDS011;13680;49.936;11.344;2023-09-12T01:03:18;17.48;;;6.72;;
25854;SDS011;13680;49.936;11.344;2023-09-12T01:05:44;11.82;;;6.35;;
25854;SDS011;13680;49.936;11.344;2023-09-12T01:08:11;14.95;;;6.88;;
25854;SDS011;13680;49.936;11.344;2023-09-12T01:10:36;14.98;;;7.53;;
25854;SDS011;13680;49.936;11.344;2023-09-12T01:13:02;10.23;;;6.18;;
25854;SDS011;13680;49.936;11.344;2023-09-12T01:15:28;10.50;;;6.47;;
25854;SDS011;13680;49.936;11.344;2023-09-12T01:17:53;11.77;;;7.28;;
25854;SDS011;13680;49.936;11.344;2023-09-12T01:20:19;18.60;;;7.20;;
25854;SDS011;13680;49.936;11.344;2023-09-12T01:23:14;13.05;;;6.70;;
25854;SDS011;13680;49.936;11.344;2023-09-12T01:28:22;11.37;;;6.93;;
25854;SDS011;13680;49.936;11.344;2023-09-12T01:30:49;10.50;;;7.00;;
25854;SDS011;13680;49.936;11.344;2023-09-12T01:33:16;14.82;;;7.25;;
25854;SDS011;13680;49.936;11.344;2023-09-12T01:35:42;14.68;;;6.93;;
25854;SDS011;13680;49.936;11.344;2023-09-12T01:38:08;14.48;;;8.43;;
25854;SDS011;13680;49.936;11.344;2023-09-12T01:40:36;15.18;;;7.10;;
25854;SDS011;13680;49.936;11.344;2023-09-12T01:43:06;13.23;;;6.72;;
25854;SDS011;13680;49.936;11.344;2023-09-12T01:45:32;14.25;;;7.30;;
25854;SDS011;13680;49.936;11.344;2023-09-12T01:47:58;12.05;;;6.88;;
25854;SDS011;13680;49.936;11.344;2023-09-12T01:50:24;10.45;;;6.22;;
25854;SDS011;13680;49.936;11.344;2023-09-12T01:52:52;14.25;;;7.85;;
25854;SDS011;13680;49.936;11.344;2023-09-12T01:55:18;13.45;;;7.55;;
25854;SDS011;13680;49.936;11.344;2023-09-12T01:57:44;12.48;;;7.05;;
25854;SDS011;13680;49.936;11.344;2023-09-12T02:00:09;13.70;;;7.57;;
25854;SDS011;13680;49.936;11.344;2023-09-12T02:02:37;10.95;;;7.05;;
25854;SDS011;13680;49.936;11.344;2023-09-12T02:07:38;12.98;;;7.35;;
25854;SDS011;13680;49.936;11.344;2023-09-12T02:10:04;21.10;;;7.47;;
25854;SDS011;13680;49.936;11.344;2023-09-12T02:12:33;18.00;;;7.32;;
25854;SDS011;13680;49.936;11.344;2023-09-12T02:14:58;10.52;;;6.88;;
25854;SDS011;13680;49.936;11.344;2023-09-12T02:17:24;12.32;;;6.75;;
25854;SDS011;13680;49.936;11.344;2023-09-12T02:19:49;15.93;;;7.30;;
25854;SDS011;13680;49.936;11.344;2023-09-12T02:22:15;11.40;;;6.93;;
25854;SDS011;13680;49.936;11.344;2023-09-12T02:24:40;14.93;;;7.43;;
25854;SDS011;13680;49.936;11.344;2023-09-12T02:27:05;14.27;;;7.50;;
25854;SDS011;13680;49.936;11.344;2023-09-12T02:29:30;12.20;;;7.65;;
25854;SDS011;13680;49.936;11.344;2023-09-12T02:31:57;11.40;;;7.65;;
25854;SDS011;13680;49.936;11.344;2023-09-12T02:34:23;14.52;;;7.55;;
25854;SDS011;13680;49.936;11.344;2023-09-12T02:36:48;16.20;;;8.13;;
25854;SDS011;13680;49.936;11.344;2023-09-12T02:39:14;13.90;;;7.85;;
25854;SDS011;13680;49.936;11.344;2023-09-12T02:41:39;11.88;;;7.10;;
25854;SDS011;13680;49.936;11.344;2023-09-12T02:44:04;14.32;;;7.25;;
25854;SDS011;13680;49.936;11.344;2023-09-12T02:46:30;9.75;;;7.00;;
25854;SDS011;13680;49.936;11.344;2023-09-12T02:48:55;15.20;;;6.93;;
25854;SDS011;13680;49.936;11.344;2023-09-12T02:51:20;13.15;;;6.97;;
25854;SDS011;13680;49.936;11.344;2023-09-12T02:53:46;17.00;;;6.90;;
25854;SDS011;13680;49.936;11.344;2023-09-12T02:56:11;11.98;;;6.88;;
25854;SDS011;13680;49.936;11.344;2023-09-12T02:58:37;12.85;;;6.93;;
25854;SDS011;13680;49.936;11.344;2023-09-12T03:01:02;13.70;;;8.63;;
25854;SDS011;13680;49.936;11.344;2023-09-12T03:03:30;12.90;;;7.75;;
25854;SDS011;13680;49.936;11.344;2023-09-12T03:05:59;15.25;;;7.25;;
25854;SDS011;13680;49.936;11.344;2023-09-12T03:08:25;13.88;;;7.00;;
25854;SDS011;13680;49.936;11.344;2023-09-12T03:10:56;12.27;;;7.72;;
25854;SDS011;13680;49.936;11.344;2023-09-12T03:13:23;20.27;;;8.85;;
25854;SDS011;13680;49.936;11.344;2023-09-12T03:15:50;18.13;;;8.10;;
25854;SDS011;13680;49.936;11.344;2023-09-12T03:18:15;16.75;;;8.18;;
25854;SDS011;13680;49.936;11.344;2023-09-12T03:20:41;14.75;;;8.18;;
25854;SDS011;13680;49.936;11.344;2023-09-12T03:23:06;10.27;;;7.30;;
25854;SDS011;13680;49.936;11.344;2023-09-12T03:25:35;12.32;;;7.00;;
25854;SDS011;13680;49.936;11.344;2023-09-12T03:28:02;11.75;;;7.80;;
25854;SDS011;13680;49.936;11.344;2023-09-12T03:30:27;12.68;;;7.60;;
25854;SDS011;13680;49.936;11.344;2023-09-12T03:32:53;17.30;;;8.27;;
25854;SDS011;13680;49.936;11.344;2023-09-12T03:35:18;13.05;;;7.85;;
25854;SDS011;13680;49.936;11.344;2023-09-12T03:37:43;20.58;;;8.10;;
25854;SDS011;13680;49.936;11.344;2023-09-12T03:40:09;16.70;;;8.23;;
25854;SDS011;13680;49.936;11.344;2023-09-12T03:42:35;13.50;;;8.15;;
25854;SDS011;13680;49.936;11.344;2023-09-12T03:45:00;16.33;;;9.13;;
25854;SDS011;13680;49.936;11.344;2023-09-12T03:47:26;13.75;;;8.13;;
25854;SDS011;13680;49.936;11.344;2023-09-12T03:49:51;16.33;;;7.00;;
25854;SDS011;13680;49.936;11.344;2023-09-12T03:52:16;11.77;;;6.95;;
25854;SDS011;13680;49.936;11.344;2023-09-12T03:54:42;14.60;;;7.75;;
25854;SDS011;13680;49.936;11.344;2023-09-12T03:57:08;13.70;;;8.32;;
25854;SDS011;13680;49.936;11.344;2023-09-12T03:59:33;12.10;;;7.78;;
25854;SDS011;13680;49.936;11.344;2023-09-12T04:01:59;15.75;;;8.13;;
25854;SDS011;13680;49.936;11.344;2023-09-12T04:04:24;12.15;;;8.30;;
25854;SDS011;13680;49.936;11.344;2023-09-12T04:06:49;18.23;;;8.48;;
25854;SDS011;13680;49.936;11.344;2023-09-12T04:09:15;16.08;;;9.05;;
25854;SDS011;13680;49.936;11.344;2023-09-12T04:11:40;14.27;;;8.38;;
25854;SDS011;13680;49.936;11.344;2023-09-12T04:14:05;21.05;;;8.85;;
25854;SDS011;13680;49.936;11.344;2023-09-12T04:16:30;12.90;;;7.10;;
25854;SDS011;13680;49.936;11.344;2023-09-12T04:18:56;16.63;;;8.07;;
25854;SDS011;13680;49.936;11.344;2023-09-12T04:21:21;16.60;;;8.02;;
25854;SDS011;13680;49.936;11.344;2023-09-12T04:23:46;13.75;;;7.70;;
25854;SDS011;13680;49.936;11.344;2023-09-12T04:26:12;16.90;;;7.90;;
25854;SDS011;13680;49.936;11.344;2023-09-12T04:28:37;13.30;;;8.05;;
25854;SDS011;13680;49.936;11.344;2023-09-12T04:31:03;16.80;;;8.52;;
25854;SDS011;13680;49.936;11.344;2023-09-12T04:33:29;12.70;;;7.80;;
25854;SDS011;13680;49.936;11.344;2023-09-12T04:35:56;12.30;;;8.50;;
25854;SDS011;13680;49.936;11.344;2023-09-12T04:38:22;12.63;;;7.80;;
25854;SDS011;13680;49.936;11.344;2023-09-12T04:41:01;13.38;;;7.82;;
25854;SDS011;13680;49.936;11.344;2023-09-12T04:43:30;15.27;;;8.68;;
25854;SDS011;13680;49.936;11.344;2023-09-12T04:45:56;14.82;;;9.65;;
25854;SDS011;13680;49.936;11.344;2023-09-12T04:48:21;17.38;;;9.43;;
25854;SDS011;13680;49.936;11.344;2023-09-12T04:50:46;17.25;;;9.13;;
25854;SDS011;13680;49.936;11.344;2023-09-12T04:53:12;14.27;;;8.73;;
25854;SDS011;13680;49.936;11.344;2023-09-12T04:55:38;11.90;;;8.35;;
25854;SDS011;13680;49.936;11.344;2023-09-12T04:58:04;11.25;;;7.35;;
25854;SDS011;13680;49.936;11.344;2023-09-12T05:00:30;14.98;;;8.07;;
25854;SDS011;13680;49.936;11.344;2023-09-12T05:02:56;13.90;;;8.05;;
25854;SDS011;13680;49.936;11.344;2023-09-12T05:05:21;17.42;;;8.48;;
25854;SDS011;13680;49.936;11.344;2023-09-12T05:07:47;15.20;;;8.52;;
25854;SDS011;13680;49.936;11.344;2023-09-12T05:10:12;12.65;;;7.88;;
25854;SDS011;13680;49.936;11.344;2023-09-12T05:12:38;17.60;;;8.00;;
25854;SDS011;13680;49.936;11.344;2023-09-12T05:15:03;14.25;;;7.68;;
25854;SDS011;13680;49.936;11.344;2023-09-12T05:17:29;12.38;;;7.00;;
25854;SDS011;13680;49.936;11.344;2023-09-12T05:19:54;16.48;;;7.68;;
25854;SDS011;13680;49.936;11.344;2023-09-12T05:22:19;9.93;;;7.10;;
25854;SDS011;13680;49.936;11.344;2023-09-12T05:24:45;15.18;;;7.80;;
25854;SDS011;13680;49.936;11.344;2023-09-12T05:27:10;16.40;;;8.50;;
25854;SDS011;13680;49.936;11.344;2023-09-12T05:29:36;13.07;;;8.18;;
25854;SDS011;13680;49.936;11.344;2023-09-12T05:32:01;11.90;;;7.18;;
25854;SDS011;13680;49.936;11.344;2023-09-12T05:34:27;29.55;;;7.65;;
25854;SDS011;13680;49.936;11.344;2023-09-12T05:36:53;12.18;;;7.65;;
25854;SDS011;13680;49.936;11.344;2023-09-12T05:39:18;17.25;;;8.38;;
25854;SDS011;13680;49.936;11.344;2023-09-12T05:41:43;15.45;;;9.38;;
25854;SDS011;13680;49.936;11.344;2023-09-12T05:44:09;15.15;;;8.48;;
25854;SDS011;13680;49.936;11.344;2023-09-12T05:46:34;15.85;;;8.68;;
25854;SDS011;13680;49.936;11.344;2023-09-12T05:49:00;12.32;;;8.38;;
25854;SDS011;13680;49.936;11.344;2023-09-12T05:51:25;18.60;;;9.10;;
25854;SDS011;13680;49.936;11.344;2023-09-12T05:53:51;17.63;;;10.43;;
25854;SDS011;13680;49.936;11.344;2023-09-12T05:56:16;22.10;;;10.30;;
25854;SDS011;13680;49.936;11.344;2023-09-12T05:58:41;20.30;;;10.15;;
25854;SDS011;13680;49.936;11.344;2023-09-12T06:01:08;15.25;;;9.23;;
25854;SDS011;13680;49.936;11.344;2023-09-12T06:03:33;17.50;;;9.02;;
25854;SDS011;13680;49.936;11.344;2023-09-12T06:05:59;15.88;;;8.80;;
25854;SDS011;13680;49.936;11.344;2023-09-12T06:08:24;17.77;;;8.32;;
25854;SDS011;13680;49.936;11.344;2023-09-12T06:10:49;15.48;;;9.32;;
25854;SDS011;13680;49.936;11.344;2023-09-12T06:13:18;16.55;;;9.13;;
25854;SDS011;13680;49.936;11.344;2023-09-12T06:15:44;17.73;;;9.30;;
25854;SDS011;13680;49.936;11.344;2023-09-12T06:18:09;15.68;;;9.88;;
25854;SDS011;13680;49.936;11.344;2023-09-12T06:20:35;17.17;;;10.88;;
25854;SDS011;13680;49.936;11.344;2023-09-12T06:23:00;19.10;;;11.00;;
25854;SDS011;13680;49.936;11.344;2023-09-12T06:25:25;20.25;;;11.60;;
25854;SDS011;13680;49.936;11.344;2023-09-12T06:27:51;18.52;;;11.50;;
25854;SDS011;13680;49.936;11.344;2023-09-12T06:30:16;21.55;;;11.55;;
25854;SDS011;13680;49.936;11.344;2023-09-12T06:32:41;22.75;;;12.43;;
25854;SDS011;13680;49.936;11.344;2023-09-12T06:35:07;24.50;;;12.25;;
25854;SDS011;13680;49.936;11.344;2023-09-12T06:37:33;21.58;;;12.40;;
25854;SDS011;13680;49.936;11.344;2023-09-12T06:39:59;18.40;;;12.80;;
25854;SDS011;13680;49.936;11.344;2023-09-12T06:42:24;22.25;;;11.52;;
25854;SDS011;13680;49.936;11.344;2023-09-12T06:44:49;15.25;;;10.27;;
25854;SDS011;13680;49.936;11.344;2023-09-12T06:47:14;17.50;;;10.52;;
25854;SDS011;13680;49.936;11.344;2023-09-12T06:49:40;20.83;;;11.50;;
25854;SDS011;13680;49.936;11.344;2023-09-12T06:52:05;17.70;;;10.77;;
25854;SDS011;13680;49.936;11.344;2023-09-12T06:54:32;18.67;;;10.98;;
25854;SDS011;13680;49.936;11.344;2023-09-12T06:56:57;18.77;;;11.10;;
25854;SDS011;13680;49.936;11.344;2023-09-12T06:59:23;24.90;;;10.30;;
25854;SDS011;13680;49.936;11.344;2023-09-12T07:01:48;21.90;;;10.18;;
25854;SDS011;13680;49.936;11.344;2023-09-12T07:04:13;16.52;;;10.07;;
25854;SDS011;13680;49.936;11.344;2023-09-12T07:06:38;18.02;;;10.20;;
25854;SDS011;13680;49.936;11.344;2023-09-12T07:09:04;19.38;;;10.15;;
25854;SDS011;13680;49.936;11.344;2023-09-12T07:11:30;12.90;;;9.10;;
25854;SDS011;13680;49.936;11.344;2023-09-12T07:13:55;17.17;;;10.23;;
25854;SDS011;13680;49.936;11.344;2023-09-12T07:16:20;17.38;;;9.50;;
25854;SDS011;13680;49.936;11.344;2023-09-12T07:18:47;13.98;;;9.40;;
25854;SDS011;13680;49.936;11.344;2023-09-12T07:21:13;18.00;;;9.80;;
25854;SDS011;13680;49.936;11.344;2023-09-12T07:23:38;12.15;;;8.75;;
25854;SDS011;13680;49.936;11.344;2023-09-12T07:26:04;16.63;;;8.90;;
25854;SDS011;13680;49.936;11.344;2023-09-12T07:28:30;13.32;;;8.55;;
25854;SDS011;13680;49.936;11.344;2023-09-12T07:30:55;16.77;;;8.55;;
25854;SDS011;13680;49.936;11.344;2023-09-12T07:33:21;10.85;;;8.50;;
25854;SDS011;13680;49.936;11.344;2023-09-12T07:35:47;15.38;;;8.52;;
25854;SDS011;13680;49.936;11.344;2023-09-12T07:38:13;13.20;;;8.05;;
25854;SDS011;13680;49.936;11.344;2023-09-12T07:40:40;10.00;;;7.68;;
25854;SDS011;13680;49.936;11.344;2023-09-12T07:43:06;12.63;;;7.78;;
25854;SDS011;13680;49.936;11.344;2023-09-12T07:45:32;11.45;;;7.45;;
25854;SDS011;13680;49.936;11.344;2023-09-12T07:48:02;12.43;;;7.30;;
25854;SDS011;13680;49.936;11.344;2023-09-12T07:50:30;10.43;;;7.72;;
25854;SDS011;13680;49.936;11.344;2023-09-12T07:52:55;10.10;;;8.13;;
25854;SDS011;13680;49.936;11.344;2023-09-12T07:55:20;12.02;;;8.02;;
25854;SDS011;13680;49.936;11.344;2023-09-12T07:57:45;18.73;;;8.50;;
25854;SDS011;13680;49.936;11.344;2023-09-12T08:00:11;13.55;;;8.35;;
25854;SDS011;13680;49.936;11.344;2023-09-12T08:02:37;18.77;;;8.48;;
25854;SDS011;13680;49.936;11.344;2023-09-12T08:05:03;17.38;;;8.65;;
25854;SDS011;13680;49.936;11.344;2023-09-12T08:07:29;16.35;;;10.18;;
25854;SDS011;13680;49.936;11.344;2023-09-12T08:09:55;16.35;;;10.00;;
25854;SDS011;13680;49.936;11.344;2023-09-12T08:12:25;12.40;;;9.05;;
25854;SDS011;13680;49.936;11.344;2023-09-12T08:14:52;12.88;;;8.90;;
25854;SDS011;13680;49.936;11.344;2023-09-12T08:17:21;13.25;;;8.52;;
25854;SDS011;13680;49.936;11.344;2023-09-12T08:19:47;15.55;;;9.68;;
25854;SDS011;13680;49.936;11.344;2023-09-12T08:22:13;11.57;;;9.07;;
25854;SDS011;13680;49.936;11.344;2023-09-12T08:24:38;15.80;;;10.10;;
25854;SDS011;13680;49.936;11.344;2023-09-12T08:27:04;11.07;;;9.55;;
25854;SDS011;13680;49.936;11.344;2023-09-12T08:29:31;17.23;;;9.73;;
25854;SDS011;13680;49.936;11.344;2023-09-12T08:31:57;15.13;;;9.80;;
25854;SDS011;13680;49.936;11.344;2023-09-12T08:34:23;20.63;;;9.07;;
25854;SDS011;13680;49.936;11.344;2023-09-12T08:36:48;16.42;;;9.43;;
25854;SDS011;13680;49.936;11.344;2023-09-12T08:39:14;14.35;;;9.00;;
25854;SDS011;13680;49.936;11.344;2023-09-12T08:41:41;11.65;;;8.63;;
25854;SDS011;13680;49.936;11.344;2023-09-12T08:44:07;9.57;;;8.48;;
25854;SDS011;13680;49.936;11.344;2023-09-12T08:46:33;12.82;;;8.50;;
25854;SDS011;13680;49.936;11.344;2023-09-12T08:48:58;11.65;;;7.93;;
25854;SDS011;13680;49.936;11.344;2023-09-12T08:51:25;9.25;;;7.38;;
25854;SDS011;13680;49.936;11.344;2023-09-12T08:53:51;10.98;;;8.32;;
25854;SDS011;13680;49.936;11.344;2023-09-12T08:56:20;13.43;;;8.15;;
25854;SDS011;13680;49.936;11.344;2023-09-12T08:58:45;11.88;;;7.90;;
25854;SDS011;13680;49.936;11.344;2023-09-12T09:01:12;12.75;;;7.63;;
25854;SDS011;13680;49.936;11.344;2023-09-12T09:03:39;11.32;;;7.40;;
25854;SDS011;13680;49.936;11.344;2023-09-12T09:06:08;9.93;;;7.40;;
25854;SDS011;13680;49.936;11.344;2023-09-12T09:08:33;11.63;;;7.75;;
25854;SDS011;13680;49.936;11.344;2023-09-12T09:11:00;10.52;;;7.40;;
25854;SDS011;13680;49.936;11.344;2023-09-12T09:13:30;11.73;;;8.30;;
25854;SDS011;13680;49.936;11.344;2023-09-12T09:21:19;14.57;;;8.88;;
25854;SDS011;13680;49.936;11.344;2023-09-12T09:23:47;10.52;;;8.27;;
25854;SDS011;13680;49.936;11.344;2023-09-12T09:26:13;12.27;;;8.70;;
25854;SDS011;13680;49.936;11.344;2023-09-12T09:28:38;14.70;;;7.97;;
25854;SDS011;13680;49.936;11.344;2023-09-12T09:31:10;10.82;;;8.38;;
25854;SDS011;13680;49.936;11.344;2023-09-12T09:33:36;11.13;;;8.35;;
25854;SDS011;13680;49.936;11.344;2023-09-12T09:36:04;12.25;;;7.65;;
25854;SDS011;13680;49.936;11.344;2023-09-12T09:38:30;10.30;;;7.20;;
25854;SDS011;13680;49.936;11.344;2023-09-12T09:40:55;9.25;;;7.68;;
25854;SDS011;13680;49.936;11.344;2023-09-12T09:43:21;15.25;;;7.72;;
25854;SDS011;13680;49.936;11.344;2023-09-12T09:45:47;8.85;;;7.38;;
25854;SDS011;13680;49.936;11.344;2023-09-12T09:48:19;12.18;;;6.93;;
25854;SDS011;13680;49.936;11.344;2023-09-12T09:50:46;9.85;;;6.22;;
25854;SDS011;13680;49.936;11.344;2023-09-12T09:53:11;9.57;;;5.82;;
25854;SDS011;13680;49.936;11.344;2023-09-12T09:55:37;13.38;;;7.13;;
25854;SDS011;13680;49.936;11.344;2023-09-12T09:58:05;6.75;;;6.13;;
25854;SDS011;13680;49.936;11.344;2023-09-12T10:00:30;11.48;;;7.13;;
25854;SDS011;13680;49.936;11.344;2023-09-12T10:02:58;9.07;;;6.30;;
25854;SDS011;13680;49.936;11.344;2023-09-12T10:05:24;10.05;;;6.53;;
25854;SDS011;13680;49.936;11.344;2023-09-12T10:07:52;12.10;;;6.00;;
25854;SDS011;13680;49.936;11.344;2023-09-12T10:10:22;10.50;;;6.18;;
25854;SDS011;13680;49.936;11.344;2023-09-12T10:12:53;13.90;;;6.03;;
25854;SDS011;13680;49.936;11.344;2023-09-12T10:15:21;11.15;;;5.93;;
25854;SDS011;13680;49.936;11.344;2023-09-12T10:17:51;7.93;;;5.75;;
25854;SDS011;13680;49.936;11.344;2023-09-12T10:20:23;8.03;;;5.83;;
25854;SDS011;13680;49.936;11.344;2023-09-12T10:22:56;9.63;;;5.72;;
25854;SDS011;13680;49.936;11.344;2023-09-12T10:25:29;8.48;;;5.40;;
25854;SDS011;13680;49.936;11.344;2023-09-12T10:27:55;10.57;;;5.95;;
25854;SDS011;13680;49.936;11.344;2023-09-12T10:30:21;10.68;;;5.60;;
25854;SDS011;13680;49.936;11.344;2023-09-12T10:32:48;8.95;;;5.13;;
25854;SDS011;13680;49.936;11.344;2023-09-12T10:35:14;7.97;;;5.63;;
25854;SDS011;13680;49.936;11.344;2023-09-12T10:37:41;10.90;;;5.20;;
25854;SDS011;13680;49.936;11.344;2023-09-12T10:40:08;10.20;;;5.00;;
25854;SDS011;13680;49.936;11.344;2023-09-12T10:42:36;11.25;;;5.28;;
25854;SDS011;13680;49.936;11.344;2023-09-12T10:45:02;12.00;;;6.40;;
25854;SDS011;13680;49.936;11.344;2023-09-12T10:47:30;10.60;;;4.95;;
25854;SDS011;13680;49.936;11.344;2023-09-12T10:49:56;13.52;;;4.90;;
25854;SDS011;13680;49.936;11.344;2023-09-12T10:52:25;9.48;;;4.55;;
25854;SDS011;13680;49.936;11.344;2023-09-12T10:54:51;12.80;;;4.85;;
25854;SDS011;13680;49.936;11.344;2023-09-12T10:57:17;12.40;;;4.60;;
25854;SDS011;13680;49.936;11.344;2023-09-12T11:02:28;13.60;;;4.78;;
25854;SDS011;13680;49.936;11.344;2023-09-12T11:04:57;10.93;;;5.10;;
25854;SDS011;13680;49.936;11.344;2023-09-12T11:10:36;9.00;;;5.25;;
25854;SDS011;13680;49.936;11.344;2023-09-12T11:12:56;10.63;;;5.32;;
25854;SDS011;13680;49.936;11.344;2023-09-12T11:15:22;10.63;;;4.82;;
25854;SDS011;13680;49.936;11.344;2023-09-12T11:17:59;11.07;;;4.72;;
25854;SDS011;13680;49.936;11.344;2023-09-12T11:20:25;11.95;;;4.72;;
25854;SDS011;13680;49.936;11.344;2023-09-12T11:22:51;12.55;;;4.82;;
25854;SDS011;13680;49.936;11.344;2023-09-12T11:30:22;8.17;;;5.20;;
25854;SDS011;13680;49.936;11.344;2023-09-12T11:32:50;13.02;;;5.28;;
25854;SDS011;13680;49.936;11.344;2023-09-12T11:35:16;11.65;;;5.13;;
25854;SDS011;13680;49.936;11.344;2023-09-12T11:37:59;17.85;;;5.35;;
25854;SDS011;13680;49.936;11.344;2023-09-12T11:42:51;9.80;;;5.07;;
25854;SDS011;13680;49.936;11.344;2023-09-12T11:45:17;14.23;;;5.35;;
25854;SDS011;13680;49.936;11.344;2023-09-12T11:47:44;9.70;;;5.00;;
25854;SDS011;13680;49.936;11.344;2023-09-12T11:50:32;10.57;;;4.93;;
25854;SDS011;13680;49.936;11.344;2023-09-12T11:53:09;13.18;;;4.90;;
25854;SDS011;13680;49.936;11.344;2023-09-12T11:55:52;11.18;;;4.93;;
25854;SDS011;13680;49.936;11.344;2023-09-12T11:58:19;10.00;;;4.72;;
25854;SDS011;13680;49.936;11.344;2023-09-12T12:00:46;5.88;;;4.32;;
25854;SDS011;13680;49.936;11.344;2023-09-12T12:03:14;11.77;;;4.85;;
25854;SDS011;13680;49.936;11.344;2023-09-12T12:05:40;9.63;;;4.65;;
25854;SDS011;13680;49.936;11.344;2023-09-12T12:08:12;13.93;;;4.57;;
25854;SDS011;13680;49.936;11.344;2023-09-12T12:10:39;11.43;;;4.72;;
25854;SDS011;13680;49.936;11.344;2023-09-12T12:13:06;11.32;;;4.80;;
25854;SDS011;13680;49.936;11.344;2023-09-12T12:15:36;11.98;;;4.45;;
25854;SDS011;13680;49.936;11.344;2023-09-12T12:18:01;10.77;;;4.90;;
25854;SDS011;13680;49.936;11.344;2023-09-12T12:20:26;12.52;;;5.18;;
25854;SDS011;13680;49.936;11.344;2023-09-12T12:22:54;12.23;;;5.10;;
25854;SDS011;13680;49.936;11.344;2023-09-12T12:25:19;11.00;;;4.87;;
25854;SDS011;13680;49.936;11.344;2023-09-12T12:27:44;13.98;;;4.88;;
25854;SDS011;13680;49.936;11.344;2023-09-12T12:30:11;9.95;;;4.68;;
25854;SDS011;13680;49.936;11.344;2023-09-12T12:32:44;12.60;;;4.68;;
25854;SDS011;13680;49.936;11.344;2023-09-12T12:35:17;14.32;;;5.05;;
25854;SDS011;13680;49.936;11.344;2023-09-12T12:37:44;7.68;;;4.63;;
25854;SDS011;13680;49.936;11.344;2023-09-12T12:40:12;14.85;;;4.97;;
25854;SDS011;13680;49.936;11.344;2023-09-12T12:42:38;8.25;;;4.50;;
25854;SDS011;13680;49.936;11.344;2023-09-12T12:45:16;11.13;;;5.07;;
25854;SDS011;13680;49.936;11.344;2023-09-12T12:47:46;10.80;;;5.10;;
25854;SDS011;13680;49.936;11.344;2023-09-12T12:50:12;9.38;;;4.57;;
25854;SDS011;13680;49.936;11.344;2023-09-12T12:52:38;11.38;;;4.22;;
25854;SDS011;13680;49.936;11.344;2023-09-12T12:55:05;12.38;;;4.70;;
25854;SDS011;13680;49.936;11.344;2023-09-12T12:57:31;12.70;;;4.88;;
25854;SDS011;13680;49.936;11.344;2023-09-12T12:59:58;9.13;;;3.72;;
25854;SDS011;13680;49.936;11.344;2023-09-12T13:02:23;8.90;;;4.70;;
25854;SDS011;13680;49.936;11.344;2023-09-12T13:04:48;10.33;;;4.20;;
25854;SDS011;13680;49.936;11.344;2023-09-12T13:07:14;7.25;;;4.10;;
25854;SDS011;13680;49.936;11.344;2023-09-12T13:09:39;7.97;;;4.15;;
25854;SDS011;13680;49.936;11.344;2023-09-12T13:12:05;10.53;;;4.17;;
25854;SDS011;13680;49.936;11.344;2023-09-12T13:14:31;9.52;;;4.00;;
25854;SDS011;13680;49.936;11.344;2023-09-12T13:16:57;12.50;;;3.95;;
25854;SDS011;13680;49.936;11.344;2023-09-12T13:19:23;7.18;;;3.55;;
25854;SDS011;13680;49.936;11.344;2023-09-12T13:21:49;9.48;;;4.78;;
25854;SDS011;13680;49.936;11.344;2023-09-12T13:24:15;11.97;;;4.27;;
25854;SDS011;13680;49.936;11.344;2023-09-12T13:26:40;14.50;;;3.97;;
25854;SDS011;13680;49.936;11.344;2023-09-12T13:29:05;10.00;;;4.60;;
25854;SDS011;13680;49.936;11.344;2023-09-12T13:31:31;7.80;;;4.00;;
25854;SDS011;13680;49.936;11.344;2023-09-12T13:33:57;5.93;;;3.78;;
25854;SDS011;13680;49.936;11.344;2023-09-12T13:36:22;8.35;;;4.00;;
25854;SDS011;13680;49.936;11.344;2023-09-12T13:38:48;6.90;;;3.97;;
25854;SDS011;13680;49.936;11.344;2023-09-12T13:41:16;12.07;;;4.38;;
25854;SDS011;13680;49.936;11.344;2023-09-12T13:43:42;5.80;;;3.80;;
25854;SDS011;13680;49.936;11.344;2023-09-12T13:46:10;8.70;;;4.13;;
25854;SDS011;13680;49.936;11.344;2023-09-12T13:48:35;6.72;;;3.85;;
25854;SDS011;13680;49.936;11.344;2023-09-12T13:51:00;10.90;;;4.07;;
25854;SDS011;13680;49.936;11.344;2023-09-12T13:53:26;12.18;;;3.97;;
25854;SDS011;13680;49.936;11.344;2023-09-12T13:55:51;14.23;;;4.03;;
25854;SDS011;13680;49.936;11.344;2023-09-12T13:58:16;8.87;;;3.60;;
25854;SDS011;13680;49.936;11.344;2023-09-12T14:00:41;11.45;;;4.43;;
25854;SDS011;13680;49.936;11.344;2023-09-12T14:03:07;8.57;;;3.70;;
25854;SDS011;13680;49.936;11.344;2023-09-12T14:05:32;9.45;;;3.92;;
25854;SDS011;13680;49.936;11.344;2023-09-12T14:07:57;9.02;;;3.60;;
25854;SDS011;13680;49.936;11.344;2023-09-12T14:10:23;9.07;;;3.95;;
25854;SDS011;13680;49.936;11.344;2023-09-12T14:12:48;11.93;;;4.38;;
25854;SDS011;13680;49.936;11.344;2023-09-12T14:15:14;9.63;;;3.67;;
25854;SDS011;13680;49.936;11.344;2023-09-12T14:17:40;6.85;;;3.42;;
25854;SDS011;13680;49.936;11.344;2023-09-12T14:20:06;8.13;;;3.85;;
25854;SDS011;13680;49.936;11.344;2023-09-12T14:22:33;9.82;;;3.45;;
25854;SDS011;13680;49.936;11.344;2023-09-12T14:24:58;8.20;;;3.80;;
25854;SDS011;13680;49.936;11.344;2023-09-12T14:27:24;7.43;;;3.23;;
25854;SDS011;13680;49.936;11.344;2023-09-12T14:29:49;9.33;;;3.33;;
25854;SDS011;13680;49.936;11.344;2023-09-12T14:32:15;7.72;;;3.83;;
25854;SDS011;13680;49.936;11.344;2023-09-12T14:34:41;9.20;;;3.40;;
25854;SDS011;13680;49.936;11.344;2023-09-12T14:37:06;11.50;;;3.70;;
25854;SDS011;13680;49.936;11.344;2023-09-12T14:39:32;15.57;;;4.13;;
25854;SDS011;13680;49.936;11.344;2023-09-12T14:41:58;6.57;;;3.20;;